Time;durP1;ratioP1;P1;durP2;ratioP2;P2;SDS_P1;SDS_P2;PMS_P1;PMS_P2;Temp;Humidity;BMP_temperature;BMP_pressure;BME280_temperature;BME280_humidity;BME280_pressure;Samples;Min_cycle;Max_cycle;Signal;HPM_P1;HPM_P2
2022/01/05 00:00:43;;;;;;;5.07;3.20;;;4.10;99.90;;;;;;5021996;28;20072;-68
2022/01/05 00:03:10;;;;;;;5.13;2.88;;;4.10;99.90;;;;;;5027747;28;20488;-68
2022/01/05 00:05:38;;;;;;;4.63;2.85;;;4.10;99.90;;;;;;5029076;28;20049;-69
2022/01/05 00:08:05;;;;;;;5.38;3.13;;;4.10;99.90;;;;;;5029612;28;20049;-68
2022/01/05 00:10:33;;;;;;;4.50;2.80;;;4.20;99.90;;;;;;5028907;28;20128;-69
2022/01/05 00:13:01;;;;;;;5.32;3.33;;;4.10;99.90;;;;;;5028766;28;20415;-68
2022/01/05 00:15:28;;;;;;;6.00;3.67;;;4.20;99.90;;;;;;5027743;28;20064;-68
2022/01/05 00:17:55;;;;;;;6.57;3.28;;;4.20;99.90;;;;;;5044095;28;20579;-69
2022/01/05 00:20:24;;;;;;;5.93;3.25;;;4.20;99.90;;;;;;5028447;28;20060;-67
2022/01/05 00:22:51;;;;;;;7.15;3.40;;;4.20;99.90;;;;;;5027020;28;20527;-68
2022/01/05 00:25:18;;;;;;;6.32;3.85;;;4.20;99.90;;;;;;5028939;28;20045;-68
2022/01/05 00:27:46;;;;;;;5.65;3.30;;;4.20;99.90;;;;;;5036943;28;20095;-69
2022/01/05 00:30:14;;;;;;;5.82;3.78;;;4.20;99.90;;;;;;5040341;28;20523;-68
2022/01/05 00:32:42;;;;;;;5.35;3.30;;;4.20;99.90;;;;;;5008273;28;20424;-68
2022/01/05 00:35:10;;;;;;;5.95;3.50;;;4.20;99.90;;;;;;5035700;28;20049;-69
2022/01/05 00:37:37;;;;;;;5.97;3.30;;;4.20;99.90;;;;;;5038565;28;20128;-68
2022/01/05 00:40:06;;;;;;;5.80;3.58;;;4.20;99.90;;;;;;5029282;28;20100;-68
2022/01/05 00:42:34;;;;;;;5.50;3.55;;;4.20;99.90;;;;;;5028322;28;20068;-69
2022/01/05 00:45:01;;;;;;;4.80;3.08;;;4.20;99.90;;;;;;5029110;28;20045;-68
2022/01/05 00:47:29;;;;;;;5.43;3.42;;;4.20;99.90;;;;;;5025346;28;20068;-68
2022/01/05 00:49:56;;;;;;;5.20;3.38;;;4.20;99.90;;;;;;5028611;28;20053;-69
2022/01/05 00:52:24;;;;;;;6.40;3.65;;;4.20;99.90;;;;;;5027269;28;20051;-69
2022/01/05 00:54:51;;;;;;;6.20;3.75;;;4.20;99.90;;;;;;5035738;28;20050;-68
2022/01/05 00:57:18;;;;;;;5.35;3.33;;;4.30;99.90;;;;;;5029638;28;20490;-68
2022/01/05 00:59:46;;;;;;;5.05;3.28;;;4.40;99.90;;;;;;5016706;28;20522;-68
2022/01/05 01:02:13;;;;;;;8.52;4.30;;;4.40;99.90;;;;;;5027705;28;20049;-68
2022/01/05 01:04:41;;;;;;;5.25;3.35;;;4.40;99.90;;;;;;5027767;28;20052;-68
2022/01/05 01:07:09;;;;;;;6.93;3.60;;;4.30;99.90;;;;;;5031550;28;20436;-68
2022/01/05 01:09:37;;;;;;;5.90;3.85;;;4.30;99.90;;;;;;5032475;28;20133;-69
2022/01/05 01:12:05;;;;;;;5.60;3.40;;;4.30;99.90;;;;;;5031579;28;20049;-69
2022/01/05 01:14:33;;;;;;;4.95;3.08;;;4.20;99.90;;;;;;5031810;28;20527;-69
2022/01/05 01:17:00;;;;;;;5.60;3.15;;;4.20;99.90;;;;;;5033067;28;20038;-68
2022/01/05 01:19:27;;;;;;;6.20;3.53;;;4.30;99.90;;;;;;5032214;28;20407;-67
2022/01/05 01:21:55;;;;;;;6.72;3.47;;;4.30;99.90;;;;;;5030281;28;20503;-68
2022/01/05 01:24:23;;;;;;;6.25;4.18;;;4.30;99.90;;;;;;5032639;28;20668;-68
2022/01/05 01:26:50;;;;;;;6.45;3.95;;;4.30;99.90;;;;;;5041115;28;20128;-68
2022/01/05 01:29:17;;;;;;;8.27;3.67;;;4.30;99.90;;;;;;5039287;28;20455;-69
2022/01/05 01:31:45;;;;;;;9.57;3.95;;;4.30;99.90;;;;;;5035533;28;20516;-68
2022/01/05 01:34:12;;;;;;;6.72;3.92;;;4.30;99.90;;;;;;5041893;28;20121;-68
2022/01/05 01:36:39;;;;;;;7.32;4.07;;;4.30;99.90;;;;;;5043073;28;20037;-68
2022/01/05 01:39:07;;;;;;;7.80;4.40;;;4.40;99.90;;;;;;5035427;28;20883;-69
2022/01/05 01:41:34;;;;;;;6.07;4.00;;;4.40;99.90;;;;;;5046481;28;20053;-67
2022/01/05 01:44:01;;;;;;;6.82;4.30;;;4.40;99.90;;;;;;5034134;28;20034;-68
2022/01/05 01:46:29;;;;;;;5.88;3.40;;;4.40;99.90;;;;;;5038813;28;20045;-68
2022/01/05 01:48:57;;;;;;;8.35;4.28;;;4.60;99.90;;;;;;5042467;28;20124;-67
2022/01/05 01:51:24;;;;;;;7.40;4.25;;;4.60;99.90;;;;;;5020467;28;20041;-67
2022/01/05 01:53:52;;;;;;;5.97;3.58;;;4.50;99.90;;;;;;5035325;28;20077;-67
2022/01/05 01:56:20;;;;;;;6.20;3.60;;;4.50;99.90;;;;;;5031617;28;20506;-67
2022/01/05 01:58:48;;;;;;;7.63;4.20;;;4.50;99.90;;;;;;5033298;28;20049;-67
2022/01/05 02:01:16;;;;;;;7.00;4.18;;;4.50;99.90;;;;;;5030572;28;20037;-67
2022/01/05 02:03:44;;;;;;;6.60;4.15;;;4.50;99.90;;;;;;5031448;28;20048;-67
2022/01/05 02:06:11;;;;;;;6.30;3.67;;;4.50;99.90;;;;;;5021837;28;20079;-67
2022/01/05 02:08:38;;;;;;;6.70;3.83;;;4.50;99.90;;;;;;5031163;28;20069;-68
2022/01/05 02:11:08;;;;;;;5.82;3.60;;;4.40;99.90;;;;;;5030834;28;20061;-67
2022/01/05 02:13:35;;;;;;;7.13;4.10;;;4.40;99.90;;;;;;5030556;28;20046;-68
2022/01/05 02:16:03;;;;;;;5.85;3.72;;;4.40;99.90;;;;;;5030268;28;20052;-67
2022/01/05 02:21:03;;;;;;;9.32;3.85;;;4.50;99.90;;;;;;5030893;28;20045;-68
2022/01/05 02:23:31;;;;;;;5.50;3.67;;;4.50;99.90;;;;;;5030276;28;20495;-68
2022/01/05 02:25:58;;;;;;;6.07;3.88;;;4.50;99.90;;;;;;5037817;28;20040;-68
2022/01/05 02:28:26;;;;;;;5.70;3.58;;;4.60;99.90;;;;;;5033674;28;20404;-68
2022/01/05 02:30:53;;;;;;;6.80;3.40;;;4.60;99.90;;;;;;5038932;28;20630;-68
2022/01/05 02:33:22;;;;;;;6.55;3.83;;;4.60;99.90;;;;;;5041278;28;20047;-68
2022/01/05 02:35:50;;;;;;;6.50;4.00;;;4.50;99.90;;;;;;5040693;28;20037;-68
2022/01/05 02:38:21;;;;;;;7.95;4.47;;;4.50;99.90;;;;;;5022098;28;20129;-68
2022/01/05 02:40:51;;;;;;;7.30;4.15;;;4.50;99.90;;;;;;5046439;28;20408;-68
2022/01/05 02:43:18;;;;;;;7.88;4.82;;;4.50;99.90;;;;;;5037592;28;20037;-68
2022/01/05 02:45:46;;;;;;;7.93;4.15;;;4.50;99.90;;;;;;5039974;28;20415;-68
2022/01/05 02:48:13;;;;;;;7.47;4.10;;;4.60;99.90;;;;;;5044167;28;20497;-68
2022/01/05 02:50:41;;;;;;;6.65;3.95;;;4.70;99.90;;;;;;5038431;28;20051;-68
2022/01/05 02:53:08;;;;;;;6.55;4.00;;;4.60;99.90;;;;;;5040493;28;20033;-67
2022/01/05 02:55:36;;;;;;;7.78;4.32;;;4.70;99.90;;;;;;5045003;28;20047;-68
2022/01/05 02:58:03;;;;;;;6.72;3.70;;;4.70;99.90;;;;;;5030752;28;20045;-67
2022/01/05 03:00:31;;;;;;;7.60;4.13;;;4.80;99.90;;;;;;5028263;28;20133;-68
2022/01/05 03:02:58;;;;;;;5.63;3.65;;;4.70;99.90;;;;;;5027149;28;20044;-68
2022/01/05 03:05:26;;;;;;;6.85;3.92;;;4.70;99.90;;;;;;5028195;28;20471;-68
2022/01/05 03:07:53;;;;;;;6.57;3.92;;;4.70;99.90;;;;;;5028697;28;20076;-68
2022/01/05 03:10:21;;;;;;;8.00;4.10;;;4.70;99.90;;;;;;5023623;28;20061;-68
2022/01/05 03:12:48;;;;;;;7.65;4.50;;;4.70;99.90;;;;;;5030840;28;20071;-68
2022/01/05 03:15:16;;;;;;;7.72;4.45;;;4.70;99.90;;;;;;5032110;28;20151;-68
2022/01/05 03:17:43;;;;;;;5.78;3.40;;;4.70;99.90;;;;;;5030746;28;20468;-68
2022/01/05 03:20:13;;;;;;;5.28;3.10;;;4.70;99.90;;;;;;5028771;28;20512;-68
2022/01/05 03:22:41;;;;;;;5.82;3.75;;;4.70;99.90;;;;;;5037501;28;20049;-69
2022/01/05 03:25:15;;;;;;;5.07;3.33;;;4.70;99.90;;;;;;5035979;28;20057;-68
2022/01/05 03:27:44;;;;;;;4.47;2.42;;;4.70;99.90;;;;;;5031659;28;20045;-69
2022/01/05 03:30:14;;;;;;;4.88;2.80;;;4.70;99.90;;;;;;5035187;28;20049;-68
2022/01/05 03:35:30;;;;;;;4.20;2.22;;;4.70;99.90;;;;;;5035625;28;20063;-68
2022/01/05 03:37:57;;;;;;;5.30;2.28;;;4.80;99.90;;;;;;5034750;28;20500;-68
2022/01/05 03:40:25;;;;;;;4.20;2.35;;;4.80;99.90;;;;;;5033406;28;20053;-68
2022/01/05 03:42:52;;;;;;;5.47;2.55;;;4.80;99.90;;;;;;5028243;28;20037;-68
2022/01/05 03:45:20;;;;;;;3.40;2.10;;;4.80;99.90;;;;;;5032185;28;20045;-67
2022/01/05 03:47:49;;;;;;;3.63;2.03;;;4.80;99.90;;;;;;5035761;28;20064;-68
2022/01/05 03:50:16;;;;;;;4.25;2.10;;;4.90;99.90;;;;;;5036619;28;20134;-68
2022/01/05 03:52:44;;;;;;;3.40;1.90;;;4.90;99.90;;;;;;5034097;28;20080;-68
2022/01/05 03:55:11;;;;;;;3.22;1.90;;;4.90;99.90;;;;;;5042738;28;20049;-67
2022/01/05 03:57:38;;;;;;;4.07;1.80;;;4.90;99.90;;;;;;5033333;28;20056;-68
2022/01/05 04:00:06;;;;;;;3.53;1.80;;;4.90;99.90;;;;;;5041939;28;20522;-68
2022/01/05 04:02:39;;;;;;;3.60;1.77;;;4.90;99.90;;;;;;5027867;28;20052;-68
2022/01/05 04:05:07;;;;;;;3.95;2.13;;;4.90;99.90;;;;;;5031079;28;20130;-68
2022/01/05 04:07:34;;;;;;;3.25;1.70;;;4.90;99.90;;;;;;5036098;28;20037;-68
2022/01/05 04:10:02;;;;;;;3.17;1.60;;;4.90;99.90;;;;;;5033370;28;20049;-68
2022/01/05 04:12:29;;;;;;;3.45;1.73;;;4.90;99.90;;;;;;5034589;28;20575;-68
2022/01/05 04:14:56;;;;;;;2.83;1.50;;;4.90;99.90;;;;;;5033365;28;20049;-68
2022/01/05 04:17:24;;;;;;;3.20;1.60;;;4.90;99.90;;;;;;5027331;28;20056;-67
2022/01/05 04:19:51;;;;;;;4.30;1.80;;;5.00;99.90;;;;;;5035307;28;20119;-68
2022/01/05 04:22:18;;;;;;;3.50;1.40;;;5.00;99.90;;;;;;5031384;28;20404;-68
2022/01/05 04:24:46;;;;;;;3.33;1.60;;;5.00;99.90;;;;;;5037686;28;20414;-67
2022/01/05 04:27:13;;;;;;;3.30;1.50;;;5.00;99.90;;;;;;5033026;28;20494;-68
2022/01/05 04:29:41;;;;;;;3.40;1.50;;;5.00;99.90;;;;;;5037951;28;20045;-68
2022/01/05 04:32:09;;;;;;;3.42;1.25;;;5.00;99.90;;;;;;5032070;28;20065;-67
2022/01/05 04:34:38;;;;;;;4.05;1.25;;;5.10;99.90;;;;;;5035601;28;20049;-68
2022/01/05 04:37:25;;;;;;;2.15;1.15;;;5.10;99.90;;;;;;5032399;28;20427;-68
2022/01/05 04:39:53;;;;;;;2.63;1.30;;;5.10;99.90;;;;;;5037917;28;20040;-67
2022/01/05 04:42:20;;;;;;;2.40;1.25;;;5.10;99.90;;;;;;5034528;28;20061;-68
2022/01/05 04:44:47;;;;;;;2.67;1.30;;;5.20;99.90;;;;;;5031701;28;20045;-68
2022/01/05 04:47:15;;;;;;;2.70;1.30;;;5.20;99.90;;;;;;5030331;28;20052;-67
2022/01/05 04:49:42;;;;;;;2.95;1.48;;;5.10;99.90;;;;;;5032118;28;20407;-68
2022/01/05 04:52:09;;;;;;;2.85;1.63;;;5.20;99.90;;;;;;5018661;28;20052;-68
2022/01/05 04:54:36;;;;;;;2.97;1.48;;;5.20;99.90;;;;;;5039028;28;20048;-68
2022/01/05 04:57:06;;;;;;;2.80;1.48;;;5.20;99.90;;;;;;5040804;28;20049;-69
2022/01/05 04:59:34;;;;;;;2.00;1.17;;;5.20;99.90;;;;;;5032631;28;20065;-67
2022/01/05 05:02:01;;;;;;;1.98;1.02;;;5.20;99.90;;;;;;5030597;28;20395;-68
2022/01/05 05:04:29;;;;;;;2.53;1.20;;;5.20;99.90;;;;;;5030080;28;20389;-68
2022/01/05 05:06:56;;;;;;;3.60;1.30;;;5.30;99.90;;;;;;5031227;28;20367;-68
2022/01/05 05:09:23;;;;;;;2.25;1.20;;;5.20;99.90;;;;;;5031093;28;20045;-68
2022/01/05 05:11:51;;;;;;;2.90;1.40;;;5.30;99.90;;;;;;5030503;28;20093;-68
2022/01/05 05:14:19;;;;;;;2.45;1.20;;;5.30;99.90;;;;;;5045495;28;20049;-68
2022/01/05 05:16:46;;;;;;;3.22;1.55;;;5.30;99.90;;;;;;5031531;28;20052;-66
2022/01/05 05:19:13;;;;;;;2.22;1.20;;;5.20;99.90;;;;;;5031301;28;20045;-68
2022/01/05 05:21:41;;;;;;;3.47;1.30;;;5.30;99.90;;;;;;5031108;28;20107;-68
2022/01/05 05:24:10;;;;;;;4.00;1.83;;;5.30;99.90;;;;;;5031772;28;20151;-66
2022/01/05 05:26:37;;;;;;;4.05;1.90;;;5.30;99.90;;;;;;5015892;28;20050;-68
2022/01/05 05:29:06;;;;;;;3.45;1.55;;;5.20;99.90;;;;;;5023039;28;20046;-68
2022/01/05 05:31:33;;;;;;;2.03;1.13;;;5.20;99.90;;;;;;5024310;28;20390;-68
2022/01/05 05:34:01;;;;;;;2.63;1.20;;;5.30;99.90;;;;;;5030998;28;20097;-68
2022/01/05 05:36:28;;;;;;;3.03;1.45;;;5.30;99.90;;;;;;5029761;28;20048;-68
2022/01/05 05:38:56;;;;;;;1.88;1.02;;;5.30;99.90;;;;;;5030792;28;20500;-69
2022/01/05 05:41:23;;;;;;;2.65;1.23;;;5.20;99.90;;;;;;5030594;28;20431;-68
2022/01/05 05:43:50;;;;;;;2.38;1.27;;;5.30;99.90;;;;;;5041450;28;20044;-67
2022/01/05 05:46:18;;;;;;;2.92;1.30;;;5.20;99.90;;;;;;5018235;28;20049;-68
2022/01/05 05:48:46;;;;;;;2.33;1.35;;;5.20;99.90;;;;;;5030161;28;20065;-67
2022/01/05 05:51:13;;;;;;;2.80;1.40;;;5.20;99.90;;;;;;5039153;28;20504;-68
2022/01/05 05:53:40;;;;;;;1.63;1.00;;;5.30;99.90;;;;;;5036578;28;20050;-67
2022/01/05 05:56:08;;;;;;;2.30;1.20;;;5.20;99.90;;;;;;5045379;28;20381;-67
2022/01/05 05:58:35;;;;;;;1.75;1.08;;;5.20;99.90;;;;;;5032208;28;20044;-67
2022/01/05 06:01:02;;;;;;;2.70;1.20;;;5.20;99.90;;;;;;5027380;28;20400;-68
2022/01/05 06:03:30;;;;;;;3.00;1.20;;;5.20;99.90;;;;;;5032236;28;20034;-69
2022/01/05 06:05:57;;;;;;;2.35;1.45;;;5.20;99.90;;;;;;5035276;28;20068;-67
2022/01/05 06:08:25;;;;;;;2.83;1.50;;;5.20;99.90;;;;;;5037400;28;20053;-68
2022/01/05 06:10:52;;;;;;;3.47;1.60;;;5.20;99.90;;;;;;5027874;28;20467;-68
2022/01/05 06:13:19;;;;;;;2.80;1.20;;;5.20;99.90;;;;;;5030201;28;20523;-68
2022/01/05 06:15:46;;;;;;;3.00;1.58;;;5.20;99.90;;;;;;5027787;28;20044;-68
2022/01/05 06:18:14;;;;;;;3.47;1.67;;;5.30;99.90;;;;;;5038387;28;20408;-68
2022/01/05 06:20:41;;;;;;;3.15;1.10;;;5.30;99.90;;;;;;5037292;28;20037;-67
2022/01/05 06:23:08;;;;;;;1.83;0.90;;;5.20;99.90;;;;;;5040219;28;20045;-68
2022/01/05 06:25:36;;;;;;;2.42;1.17;;;5.30;99.90;;;;;;5030854;28;20068;-68
2022/01/05 06:28:03;;;;;;;2.40;1.13;;;5.30;99.90;;;;;;5033616;28;20810;-68
2022/01/05 06:30:30;;;;;;;1.48;0.95;;;5.30;99.90;;;;;;5030473;28;20041;-67
2022/01/05 06:32:58;;;;;;;3.80;1.70;;;5.30;99.90;;;;;;5045257;28;20045;-67
2022/01/05 06:35:25;;;;;;;2.20;1.20;;;5.30;99.90;;;;;;5039912;28;20144;-67
2022/01/05 06:37:52;;;;;;;2.55;0.90;;;5.30;99.90;;;;;;5044471;28;20078;-67
2022/01/05 06:40:22;;;;;;;5.63;1.30;;;5.30;99.90;;;;;;5034339;28;20041;-67
2022/01/05 06:42:49;;;;;;;0.60;0.60;;;5.10;99.90;;;;;;5023695;28;20048;-68
2022/01/05 06:45:18;;;;;;;1.25;0.80;;;4.80;99.90;;;;;;5023695;28;20530;-65
2022/01/05 06:47:45;;;;;;;1.48;0.82;;;4.50;99.90;;;;;;5017525;28;20053;-67
2022/01/05 06:50:12;;;;;;;1.58;0.98;;;4.30;99.90;;;;;;5031359;28;20952;-66
2022/01/05 06:52:40;;;;;;;1.60;1.00;;;4.10;99.90;;;;;;5029193;28;20431;-68
2022/01/05 06:55:09;;;;;;;2.05;1.10;;;4.00;99.90;;;;;;5030107;28;20511;-66
2022/01/05 06:57:39;;;;;;;2.35;1.33;;;3.90;99.90;;;;;;5029560;28;20048;-69
2022/01/05 07:00:09;;;;;;;1.80;1.05;;;3.80;99.90;;;;;;5023791;28;20432;-67
2022/01/05 07:02:36;;;;;;;0.90;0.55;;;3.70;99.90;;;;;;5026030;28;20038;-65
2022/01/05 07:05:05;;;;;;;1.00;0.63;;;3.70;99.90;;;;;;5019280;28;20143;-65
2022/01/05 07:07:33;;;;;;;0.85;0.50;;;3.50;99.90;;;;;;5036280;28;20045;-67
2022/01/05 07:10:00;;;;;;;1.95;0.65;;;3.40;99.90;;;;;;5034032;28;20044;-68
2022/01/05 07:12:28;;;;;;;0.70;0.60;;;3.30;99.90;;;;;;5028985;28;20518;-67
2022/01/05 07:14:55;;;;;;;1.65;0.60;;;3.30;99.90;;;;;;5039012;28;20052;-67
2022/01/05 07:17:23;;;;;;;2.15;0.70;;;3.30;99.90;;;;;;5030067;28;20095;-66
2022/01/05 07:19:50;;;;;;;1.95;0.68;;;3.30;99.90;;;;;;5029092;28;20064;-65
2022/01/05 07:22:17;;;;;;;2.20;0.90;;;3.20;99.90;;;;;;5029195;28;20045;-68
2022/01/05 07:24:45;;;;;;;1.33;0.70;;;3.10;99.90;;;;;;5041061;28;20385;-67
2022/01/05 07:27:12;;;;;;;2.13;0.80;;;3.00;99.90;;;;;;5039650;28;20049;-68
2022/01/05 07:29:39;;;;;;;1.75;0.77;;;3.00;99.90;;;;;;5022431;28;20504;-66
2022/01/05 07:32:07;;;;;;;2.22;0.90;;;2.90;99.90;;;;;;5038743;28;20041;-65
2022/01/05 07:34:34;;;;;;;2.70;0.82;;;3.00;99.90;;;;;;5019933;28;20638;-66
2022/01/05 07:37:02;;;;;;;5.20;1.00;;;3.00;99.90;;;;;;5027230;28;20042;-66
2022/01/05 07:39:30;;;;;;;2.95;1.00;;;2.90;99.90;;;;;;5034629;28;20037;-66
2022/01/05 07:41:57;;;;;;;1.65;1.00;;;2.80;99.90;;;;;;5040361;28;20037;-66
2022/01/05 07:44:24;;;;;;;4.00;1.30;;;2.80;99.90;;;;;;5027875;28;20065;-67
2022/01/05 07:46:51;;;;;;;5.25;1.27;;;2.70;99.90;;;;;;5029276;28;20079;-65
2022/01/05 07:49:19;;;;;;;3.67;1.20;;;2.60;99.90;;;;;;5030004;28;20048;-66
2022/01/05 07:51:46;;;;;;;3.13;1.05;;;2.60;99.90;;;;;;5028052;28;20077;-67
2022/01/05 07:54:13;;;;;;;2.95;1.35;;;2.60;99.90;;;;;;5038422;28;20049;-67
2022/01/05 07:56:40;;;;;;;4.03;1.75;;;2.60;99.90;;;;;;5028863;28;20057;-67
2022/01/05 07:59:08;;;;;;;3.83;1.50;;;2.60;99.90;;;;;;5030231;28;20053;-66
2022/01/05 08:01:35;;;;;;;3.00;1.27;;;2.60;99.90;;;;;;5027749;28;20304;-67
2022/01/05 08:04:03;;;;;;;4.28;1.92;;;2.70;99.90;;;;;;5028951;28;20050;-68
2022/01/05 08:06:30;;;;;;;5.30;1.90;;;2.60;99.90;;;;;;5028388;28;20106;-67
2022/01/05 08:08:57;;;;;;;4.22;2.00;;;2.70;99.90;;;;;;5028841;28;20056;-68
2022/01/05 08:11:24;;;;;;;5.80;2.17;;;2.70;99.90;;;;;;5027352;28;20049;-68
2022/01/05 08:13:52;;;;;;;4.75;2.00;;;2.70;99.90;;;;;;5029947;28;20510;-67
2022/01/05 08:16:20;;;;;;;6.10;2.33;;;2.80;99.90;;;;;;5033128;28;20057;-68
2022/01/05 08:18:49;;;;;;;7.13;2.00;;;2.80;99.90;;;;;;5030344;28;20041;-67
2022/01/05 08:21:17;;;;;;;3.83;2.25;;;2.80;99.90;;;;;;5038791;28;20290;-68
2022/01/05 08:23:44;;;;;;;7.55;2.53;;;2.80;99.90;;;;;;5030432;28;20096;-66
2022/01/05 08:26:12;;;;;;;5.72;2.60;;;2.80;99.90;;;;;;5034677;28;20144;-67
2022/01/05 08:28:39;;;;;;;8.38;2.72;;;2.80;99.90;;;;;;5035853;28;20053;-66
2022/01/05 08:31:07;;;;;;;7.50;2.30;;;2.80;99.90;;;;;;5036438;28;20045;-68
2022/01/05 08:33:35;;;;;;;6.97;2.20;;;2.80;99.90;;;;;;5033454;28;20045;-67
2022/01/05 08:36:03;;;;;;;10.00;2.80;;;2.80;99.90;;;;;;5038707;28;20049;-66
2022/01/05 08:38:32;;;;;;;4.60;2.33;;;2.90;99.90;;;;;;5041197;28;20578;-65
2022/01/05 08:40:59;;;;;;;5.30;2.40;;;2.80;99.90;;;;;;5045471;28;20049;-66
2022/01/05 08:43:26;;;;;;;6.07;2.50;;;2.80;99.90;;;;;;5028035;28;20419;-68
2022/01/05 08:45:54;;;;;;;9.73;3.28;;;2.80;99.90;;;;;;5030299;28;20037;-67
2022/01/05 08:48:21;;;;;;;8.88;2.90;;;2.80;99.90;;;;;;5039428;28;20060;-64
2022/01/05 08:50:51;;;;;;;10.20;2.95;;;2.80;99.90;;;;;;5029623;28;20041;-68
2022/01/05 08:53:19;;;;;;;8.95;3.15;;;2.80;99.90;;;;;;5035343;28;20045;-66
2022/01/05 08:55:48;;;;;;;8.32;2.53;;;2.80;99.90;;;;;;5037147;28;20053;-68
2022/01/05 08:58:17;;;;;;;6.95;3.28;;;2.90;99.90;;;;;;5039590;28;20108;-67
2022/01/05 09:00:45;;;;;;;8.52;3.20;;;2.90;99.90;;;;;;5039038;28;20515;-67
2022/01/05 09:03:14;;;;;;;6.82;3.25;;;2.90;99.90;;;;;;5032056;28;20052;-66
2022/01/05 09:05:43;;;;;;;12.27;3.53;;;2.90;99.90;;;;;;5033478;28;20141;-66
2022/01/05 09:08:10;;;;;;;10.48;3.78;;;2.80;99.90;;;;;;5031845;28;20045;-65
2022/01/05 09:10:38;;;;;;;7.43;3.35;;;2.90;99.90;;;;;;5033789;28;20068;-66
2022/01/05 09:13:09;;;;;;;10.45;3.88;;;2.90;99.90;;;;;;5033068;28;20053;-67
2022/01/05 09:15:38;;;;;;;9.17;3.90;;;2.80;99.90;;;;;;5028375;28;20058;-66
2022/01/05 09:18:06;;;;;;;9.20;3.75;;;2.80;99.90;;;;;;5033582;28;20052;-68
2022/01/05 09:20:33;;;;;;;8.32;4.25;;;2.70;99.90;;;;;;5031701;28;20539;-65
2022/01/05 09:23:02;;;;;;;9.85;3.88;;;2.70;99.90;;;;;;5028989;28;20056;-65
2022/01/05 09:25:30;;;;;;;8.82;4.45;;;2.80;99.90;;;;;;5043124;28;20046;-67
2022/01/05 09:27:57;;;;;;;9.82;4.13;;;2.70;99.90;;;;;;5041383;28;20415;-66
2022/01/05 09:30:27;;;;;;;8.10;3.75;;;2.60;99.90;;;;;;5045139;28;20416;-67
2022/01/05 09:32:54;;;;;;;8.30;4.10;;;2.50;99.90;;;;;;5047636;28;20049;-67
2022/01/05 09:35:24;;;;;;;10.32;3.83;;;2.40;99.90;;;;;;5035234;28;20441;-64
2022/01/05 09:43:27;;;;;;;11.80;4.60;;;2.30;99.90;;;;;;5064639;28;20052;-66
2022/01/05 09:46:09;;;;;;;13.40;4.50;;;2.30;99.90;;;;;;5042548;28;20044;-66
2022/01/05 09:49:02;;;;;;;10.25;4.05;;;2.30;99.90;;;;;;5043967;28;20049;-67
2022/01/05 09:51:31;;;;;;;11.00;4.10;;;2.40;99.90;;;;;;5055975;28;20419;-65
2022/01/05 09:54:01;;;;;;;13.15;4.20;;;2.40;99.90;;;;;;5037852;28;20053;-65
2022/01/05 09:56:52;;;;;;;12.73;4.60;;;2.40;99.90;;;;;;5050690;28;20048;-65
2022/01/05 09:59:19;;;;;;;10.27;4.13;;;2.50;99.90;;;;;;5036128;28;20049;-65
2022/01/05 10:01:47;;;;;;;8.35;3.30;;;2.60;99.90;;;;;;5047038;28;20610;-68
2022/01/05 10:04:14;;;;;;;8.52;3.45;;;2.60;99.90;;;;;;5014331;28;20494;-67
2022/01/05 10:06:42;;;;;;;10.18;2.97;;;2.60;99.90;;;;;;5064187;28;20095;-65
2022/01/05 10:09:10;;;;;;;6.68;2.90;;;2.60;99.90;;;;;;5056325;28;20048;-68
2022/01/05 10:11:37;;;;;;;11.70;2.83;;;2.70;99.90;;;;;;5056023;28;20545;-68
2022/01/05 10:14:06;;;;;;;6.45;2.13;;;2.80;99.90;;;;;;5053815;28;20057;-66
2022/01/05 10:16:33;;;;;;;8.60;2.28;;;3.00;99.90;;;;;;5054399;28;20045;-66
2022/01/05 10:19:01;;;;;;;9.40;2.60;;;3.00;99.90;;;;;;5044875;28;20065;-67
2022/01/05 10:21:37;;;;;;;7.15;2.00;;;2.80;99.90;;;;;;5029090;28;20033;-66
2022/01/05 10:24:05;;;;;;;8.90;2.55;;;2.90;99.90;;;;;;5035286;28;20046;-69
2022/01/05 10:26:39;;;;;;;6.05;2.20;;;2.90;99.90;;;;;;5025353;28;20081;-68
2022/01/05 10:29:20;;;;;;;4.65;1.88;;;2.80;99.90;;;;;;5035104;28;20059;-66
2022/01/05 10:31:55;;;;;;;7.32;2.30;;;2.90;99.90;;;;;;5026625;28;20511;-66
2022/01/05 10:34:25;;;;;;;7.80;2.30;;;3.20;99.90;;;;;;5029583;28;20048;-68
2022/01/05 10:36:55;;;;;;;6.45;2.15;;;3.50;99.90;;;;;;5036884;28;21165;-67
2022/01/05 10:39:39;;;;;;;7.85;2.30;;;3.70;99.90;;;;;;5035566;28;20053;-66
2022/01/05 10:42:13;;;;;;;7.32;2.70;;;3.70;99.90;;;;;;5033788;28;20546;-68
2022/01/05 10:44:44;;;;;;;6.35;1.90;;;3.70;99.90;;;;;;5013468;28;20060;-66
2022/01/05 10:47:16;;;;;;;8.10;2.05;;;3.50;99.90;;;;;;5023589;28;20060;-67
2022/01/05 10:49:44;;;;;;;;;;;3.20;99.90;;;;;;5029965;28;20049;-66
2022/01/05 10:52:35;;;;;;;6.93;2.03;;;3.40;99.90;;;;;;5029383;28;19929;-68
2022/01/05 10:55:14;;;;;;;14.52;2.53;;;3.70;99.90;;;;;;5008524;28;20145;-67
2022/01/05 10:58:07;;;;;;;4.90;2.03;;;3.80;99.90;;;;;;5032165;28;20373;-67
2022/01/05 11:00:47;;;;;;;8.80;2.00;;;4.30;99.90;;;;;;5041343;28;20496;-67
2022/01/05 11:03:25;;;;;;;7.47;1.83;;;4.80;99.90;;;;;;5031316;28;20037;-67
2022/01/05 11:06:13;;;;;;;8.02;2.20;;;5.30;99.90;;;;;;5039396;28;20111;-69
2022/01/05 11:09:01;;;;;;;10.05;2.40;;;5.00;99.90;;;;;;5042875;28;20053;-67
2022/01/05 11:11:38;;;;;;;6.78;2.10;;;4.40;99.90;;;;;;5031056;28;20473;-68
2022/01/05 11:14:27;;;;;;;5.90;2.00;;;3.90;99.90;;;;;;5027752;28;20072;-66
2022/01/05 11:16:55;;;;;;;6.63;1.65;;;3.40;99.90;;;;;;5030423;28;20115;-67
2022/01/05 11:19:27;;;;;;;11.63;2.50;;;3.20;99.90;;;;;;5043822;28;20045;-65
2022/01/05 11:22:07;;;;;;;5.50;2.28;;;3.10;99.90;;;;;;5029750;28;20038;-67
2022/01/05 11:24:53;;;;;;;9.18;2.40;;;3.00;99.90;;;;;;5043245;28;20067;-65
2022/01/05 11:27:28;;;;;;;8.88;2.33;;;3.90;99.90;;;;;;5040350;28;20060;-66
2022/01/05 11:29:56;;;;;;;10.40;2.20;;;4.60;99.90;;;;;;5041996;28;20102;-67
2022/01/05 11:32:27;;;;;;;5.60;1.83;;;5.40;99.90;;;;;;5031443;28;20318;-66
2022/01/05 11:34:55;;;;;;;6.22;2.08;;;5.50;99.90;;;;;;5034681;28;20056;-66
2022/01/05 11:37:23;;;;;;;6.55;1.88;;;5.10;99.90;;;;;;5036331;28;20119;-67
2022/01/05 11:39:52;;;;;;;10.05;2.08;;;5.30;99.90;;;;;;5032678;28;20029;-68
2022/01/05 11:42:28;;;;;;;5.18;2.10;;;6.50;99.90;;;;;;5029548;28;20038;-67
2022/01/05 11:44:57;;;;;;;5.82;1.73;;;8.20;99.90;;;;;;5037271;28;20052;-67
2022/01/05 11:47:27;;;;;;;6.00;2.05;;;8.20;99.90;;;;;;5039149;28;20348;-69
2022/01/05 11:50:26;;;;;;;10.35;1.95;;;8.40;99.90;;;;;;5036288;28;20486;-68
2022/01/05 11:53:06;;;;;;;8.27;2.00;;;8.50;99.90;;;;;;5040638;28;20051;-65
2022/01/05 11:56:01;;;;;;;7.28;2.00;;;8.70;99.90;;;;;;5032203;28;20121;-68
2022/01/05 11:58:31;;;;;;;7.88;2.08;;;9.60;99.90;;;;;;5012883;28;20571;-67
2022/01/05 12:01:12;;;;;;;7.90;1.90;;;9.50;99.90;;;;;;5031069;28;20046;-69
2022/01/05 12:03:50;;;;;;;6.15;2.22;;;9.10;99.90;;;;;;5020661;28;20056;-67
2022/01/05 12:06:19;;;;;;;8.45;1.90;;;8.60;99.90;;;;;;5027818;28;20527;-66
2022/01/05 12:08:55;;;;;;;7.78;1.90;;;7.90;99.90;;;;;;5030670;28;20072;-67
2022/01/05 12:11:33;;;;;;;4.25;1.45;;;6.70;99.90;;;;;;5031452;28;20843;-67
2022/01/05 12:14:06;;;;;;;6.85;1.80;;;5.60;99.90;;;;;;5029928;28;20052;-68
2022/01/05 12:19:34;;;;;;;6.40;2.00;;;4.20;99.90;;;;;;5039319;28;20507;-67
2022/01/05 12:22:14;;;;;;;6.47;1.98;;;3.70;99.90;;;;;;5033099;28;20054;-66
2022/01/05 12:24:54;;;;;;;6.30;2.15;;;3.60;99.90;;;;;;5030028;28;20056;-66
2022/01/05 12:27:26;;;;;;;7.05;1.73;;;3.50;99.90;;;;;;5033168;28;20041;-67
2022/01/05 12:29:54;;;;;;;10.60;1.95;;;3.40;99.90;;;;;;5041348;28;20052;-66
2022/01/05 12:32:36;;;;;;;8.35;2.00;;;3.50;99.90;;;;;;5033429;28;20088;-66
2022/01/05 12:35:05;;;;;;;7.68;2.03;;;3.90;99.90;;;;;;5030380;28;20120;-67
2022/01/05 12:38:05;;;;;;;11.27;2.45;;;4.00;99.90;;;;;;5032787;28;20444;-66
2022/01/05 12:40:42;;;;;;;6.75;1.88;;;3.90;99.90;;;;;;5026757;28;20081;-66
2022/01/05 12:43:10;;;;;;;8.65;2.00;;;3.50;99.90;;;;;;5029090;28;20137;-67
2022/01/05 12:45:47;;;;;;;6.85;1.85;;;3.40;99.90;;;;;;5032155;28;20046;-66
2022/01/05 12:48:43;;;;;;;9.00;2.10;;;3.20;99.90;;;;;;5022115;28;20053;-67
2022/01/05 12:51:20;;;;;;;8.75;2.47;;;3.10;99.90;;;;;;5010174;28;20057;-67
2022/01/05 12:53:56;;;;;;;4.53;1.83;;;3.00;99.90;;;;;;5029285;28;20072;-67
2022/01/05 12:56:26;;;;;;;7.78;1.80;;;2.90;99.90;;;;;;5021072;28;20037;-68
2022/01/05 12:58:56;;;;;;;6.65;2.10;;;2.90;99.90;;;;;;5030202;28;20488;-67
2022/01/05 13:01:27;;;;;;;10.68;2.10;;;2.80;99.90;;;;;;5026842;28;20080;-66
2022/01/05 13:03:57;;;;;;;12.00;2.40;;;2.80;99.90;;;;;;5030534;28;20073;-65
2022/01/05 13:06:32;;;;;;;6.13;1.90;;;2.80;99.90;;;;;;5037982;28;20057;-68
2022/01/05 13:09:06;;;;;;;7.32;2.15;;;2.70;99.90;;;;;;5031697;28;20072;-67
2022/01/05 13:11:43;;;;;;;9.20;2.17;;;2.70;99.90;;;;;;5045548;28;20148;-67
2022/01/05 13:14:18;;;;;;;5.82;1.70;;;2.70;99.90;;;;;;5034876;28;20046;-66
2022/01/05 13:16:53;;;;;;;8.48;2.00;;;2.70;99.90;;;;;;5040814;28;20057;-67
2022/01/05 13:19:29;;;;;;;8.73;2.83;;;2.60;99.90;;;;;;5040622;28;20049;-70
2022/01/05 13:22:00;;;;;;;10.43;2.72;;;2.60;99.90;;;;;;5046314;28;20384;-69